createdAt,value
2023-01-03T00:02:16.553Z,2.60
2023-01-03T00:04:49.194Z,2.42
2023-01-03T00:07:34.368Z,2.63
2023-01-03T00:10:07.800Z,3.33
2023-01-03T00:12:36.019Z,4.20
2023-01-03T00:15:04.487Z,3.92
2023-01-03T00:17:31.920Z,2.72
2023-01-03T00:19:59.324Z,2.97
2023-01-03T00:22:26.827Z,3.00
2023-01-03T00:24:54.208Z,2.90
2023-01-03T00:27:21.556Z,3.53
2023-01-03T00:29:51.203Z,2.47
2023-01-03T00:32:18.938Z,2.08
2023-01-03T00:34:47.576Z,2.60
2023-01-03T00:37:16.185Z,2.58
2023-01-03T00:39:44.331Z,2.67
2023-01-03T00:42:11.723Z,2.88
2023-01-03T00:44:38.871Z,2.58
2023-01-03T00:47:06.397Z,2.72
2023-01-03T00:49:33.753Z,2.55
2023-01-03T00:52:01.124Z,3.20
2023-01-03T00:54:28.517Z,2.67
2023-01-03T00:56:55.793Z,2.22
2023-01-03T00:59:23.306Z,2.65
2023-01-03T01:01:54.694Z,3.67
2023-01-03T01:04:30.337Z,3.17
2023-01-03T01:07:03.382Z,1.33
2023-01-03T01:09:34.319Z,2.03
2023-01-03T01:12:02.147Z,2.22
2023-01-03T01:14:31.296Z,2.10
2023-01-03T01:17:08.380Z,2.00
2023-01-03T01:19:39.122Z,2.10
2023-01-03T01:22:06.887Z,3.00
2023-01-03T01:24:34.786Z,2.70
2023-01-03T01:27:02.489Z,3.08
2023-01-03T01:29:29.806Z,2.35
2023-01-03T01:31:57.205Z,2.00
2023-01-03T01:34:24.799Z,2.60
2023-01-03T01:36:52.893Z,2.45
2023-01-03T01:39:23.256Z,2.88
2023-01-03T01:42:18.226Z,2.53
2023-01-03T01:45:15.458Z,2.92
2023-01-03T01:47:49.451Z,3.55
2023-01-03T01:50:19.861Z,2.60
2023-01-03T01:52:58.274Z,2.55
2023-01-03T01:55:39.781Z,2.60
2023-01-03T01:58:09.256Z,2.55
2023-01-03T02:00:37.915Z,3.15
2023-01-03T02:03:05.636Z,2.85
2023-01-03T02:05:36.564Z,2.40
2023-01-03T02:08:04.576Z,2.78
2023-01-03T02:10:34.489Z,2.13
2023-01-03T02:13:42.850Z,2.22
2023-01-03T02:16:50.827Z,2.58
2023-01-03T02:19:39.506Z,2.75
2023-01-03T02:22:09.585Z,2.47
2023-01-03T02:25:07.586Z,1.98
2023-01-03T02:27:55.992Z,2.15
2023-01-03T02:30:28.926Z,2.08
2023-01-03T02:33:18.264Z,3.42
2023-01-03T02:36:22.955Z,2.17
2023-01-03T02:39:13.180Z,3.00
2023-01-03T02:41:48.717Z,2.28
2023-01-03T02:44:22.319Z,2.22
2023-01-03T02:46:54.128Z,3.40
2023-01-03T02:49:44.144Z,2.88
2023-01-03T02:52:15.414Z,2.90
2023-01-03T02:55:04.866Z,2.75
2023-01-03T02:57:42.005Z,2.70
2023-01-03T03:00:30.430Z,2.90
2023-01-03T03:03:06.880Z,3.28
2023-01-03T03:05:46.003Z,3.95
2023-01-03T03:08:13.337Z,4.88
2023-01-03T03:11:00.503Z,3.40
2023-01-03T03:13:52.652Z,3.15
2023-01-03T03:16:43.921Z,3.42
2023-01-03T03:19:41.645Z,3.72
2023-01-03T03:22:36.943Z,3.05
2023-01-03T03:25:11.352Z,3.63
2023-01-03T03:28:01.003Z,2.83
2023-01-03T03:30:31.424Z,2.83
2023-01-03T03:33:06.574Z,3.45
2023-01-03T03:35:44.482Z,2.90
2023-01-03T03:38:15.570Z,3.28
2023-01-03T03:41:12.089Z,2.58
2023-01-03T03:44:06.132Z,2.92
2023-01-03T03:46:43.339Z,2.97
2023-01-03T03:49:34.821Z,2.63
2023-01-03T03:52:04.678Z,2.65
2023-01-03T03:54:36.040Z,4.22
2023-01-03T03:57:39.383Z,3.50
2023-01-03T04:00:11.821Z,3.65
2023-01-03T04:02:40.244Z,2.70
2023-01-03T04:05:11.546Z,3.47
2023-01-03T04:07:40.376Z,3.33
2023-01-03T04:10:09.585Z,2.80
2023-01-03T04:12:37.450Z,3.20
2023-01-03T04:15:07.229Z,3.42
2023-01-03T04:17:35.072Z,2.67
2023-01-03T04:20:02.405Z,2.90
2023-01-03T04:22:29.858Z,4.00
2023-01-03T04:24:57.223Z,3.35
2023-01-03T04:27:24.567Z,3.33
2023-01-03T04:29:51.885Z,2.95
2023-01-03T04:32:19.120Z,3.20
2023-01-03T04:34:46.328Z,2.63
2023-01-03T04:37:13.790Z,2.85
2023-01-03T04:39:40.912Z,3.17
2023-01-03T04:42:28.805Z,2.85
2023-01-03T04:44:56.056Z,3.00
2023-01-03T04:47:23.295Z,3.72
2023-01-03T04:49:50.430Z,3.72
2023-01-03T04:52:17.832Z,3.25
2023-01-03T04:54:45.320Z,3.42
2023-01-03T04:57:12.577Z,2.90
2023-01-03T04:59:39.892Z,3.65
2023-01-03T05:02:07.250Z,2.97
2023-01-03T05:04:34.767Z,2.95
2023-01-03T05:07:01.964Z,3.17
2023-01-03T05:09:29.413Z,2.97
2023-01-03T05:11:56.641Z,3.08
2023-01-03T05:14:23.980Z,3.70
2023-01-03T05:16:51.412Z,3.30
2023-01-03T05:19:18.940Z,3.22
2023-01-03T05:22:04.737Z,3.78
2023-01-03T05:24:50.783Z,4.45
2023-01-03T05:27:18.234Z,3.35
2023-01-03T05:29:48.424Z,3.40
2023-01-03T05:32:15.812Z,2.85
2023-01-03T05:34:42.989Z,3.53
2023-01-03T05:37:10.356Z,3.88
2023-01-03T05:39:37.691Z,3.63
2023-01-03T05:42:05.425Z,5.78
2023-01-03T05:44:34.371Z,3.72
2023-01-03T05:47:03.986Z,3.30
2023-01-03T05:49:31.355Z,4.03
2023-01-03T05:51:58.597Z,4.40
2023-01-03T05:54:26.192Z,3.80
2023-01-03T05:56:53.576Z,4.63
2023-01-03T05:59:21.305Z,4.50
2023-01-03T06:01:49.249Z,4.80
2023-01-03T06:04:16.682Z,4.00
2023-01-03T06:06:44.125Z,4.13
2023-01-03T06:09:11.676Z,4.20
2023-01-03T06:11:41.343Z,5.78
2023-01-03T06:14:08.551Z,4.00
2023-01-03T06:16:54.253Z,4.05
2023-01-03T06:19:21.445Z,5.90
2023-01-03T06:21:48.903Z,4.35
2023-01-03T06:24:16.071Z,5.47
2023-01-03T06:26:43.285Z,4.68
2023-01-03T06:29:10.488Z,4.78
2023-01-03T06:31:37.917Z,4.63
2023-01-03T06:34:05.340Z,5.05
2023-01-03T06:36:34.586Z,4.88
2023-01-03T06:39:02.416Z,6.05
2023-01-03T06:41:29.818Z,6.25
2023-01-03T06:43:57.189Z,5.55
2023-01-03T06:46:42.775Z,5.03
2023-01-03T06:52:31.560Z,4.10
2023-01-03T06:55:02.335Z,4.63
2023-01-03T06:57:29.616Z,4.68
2023-01-03T06:59:56.775Z,4.95
2023-01-03T07:02:24.533Z,6.75
2023-01-03T07:04:52.093Z,5.88
2023-01-03T07:07:19.691Z,9.15
2023-01-03T07:09:46.925Z,5.60
2023-01-03T07:12:32.917Z,5.05
2023-01-03T07:15:00.561Z,4.10
2023-01-03T07:17:27.912Z,4.47
2023-01-03T07:19:55.464Z,4.35
2023-01-03T07:22:22.815Z,6.28
2023-01-03T07:24:50.048Z,5.25
2023-01-03T07:27:17.678Z,5.63
2023-01-03T07:29:45.008Z,6.75
2023-01-03T07:32:12.315Z,5.68
2023-01-03T07:34:39.476Z,6.70
2023-01-03T07:37:06.788Z,5.88
2023-01-03T07:39:37.045Z,4.95
2023-01-03T07:42:23.217Z,5.50
2023-01-03T07:44:53.428Z,8.63
2023-01-03T07:47:20.578Z,4.70
2023-01-03T07:49:47.644Z,5.55
2023-01-03T07:52:15.078Z,5.18
2023-01-03T07:54:42.668Z,4.85
2023-01-03T07:57:10.156Z,5.65
2023-01-03T07:59:37.574Z,7.32
2023-01-03T08:02:04.993Z,5.65
2023-01-03T08:04:32.435Z,7.10
2023-01-03T08:06:59.962Z,5.63
2023-01-03T08:09:45.685Z,6.32
2023-01-03T08:12:31.577Z,5.70
2023-01-03T08:14:59.184Z,7.18
2023-01-03T08:17:27.529Z,6.00
2023-01-03T08:19:54.820Z,6.97
2023-01-03T08:22:21.961Z,6.45
2023-01-03T08:24:49.288Z,6.15
2023-01-03T08:27:16.684Z,6.53
2023-01-03T08:29:48.860Z,6.70
2023-01-03T08:32:17.445Z,7.80
2023-01-03T08:34:48.857Z,6.50
2023-01-03T08:37:17.480Z,7.93
2023-01-03T08:39:51.280Z,6.80
2023-01-03T08:42:23.669Z,6.85
2023-01-03T08:44:58.730Z,6.47
2023-01-03T08:47:26.202Z,7.18
2023-01-03T08:49:53.642Z,5.90
2023-01-03T08:52:21.085Z,6.28
2023-01-03T08:54:48.556Z,5.93
2023-01-03T08:57:16.004Z,5.20
2023-01-03T08:59:43.274Z,6.22
2023-01-03T09:02:10.896Z,6.85
2023-01-03T09:04:38.309Z,6.75
2023-01-03T09:07:05.861Z,5.95
2023-01-03T09:09:33.316Z,4.70
2023-01-03T09:12:00.566Z,5.38
2023-01-03T09:14:29.929Z,5.03
2023-01-03T09:16:57.469Z,4.93
2023-01-03T09:19:24.842Z,5.45
2023-01-03T09:21:52.406Z,5.90
2023-01-03T09:24:19.970Z,4.85
2023-01-03T09:26:53.995Z,4.40
2023-01-03T09:29:22.415Z,4.95
2023-01-03T09:31:51.525Z,3.90
2023-01-03T09:34:19.379Z,3.88
2023-01-03T09:36:46.807Z,3.63
2023-01-03T09:39:14.749Z,4.03
2023-01-03T09:41:43.128Z,4.25
2023-01-03T09:44:11.184Z,5.53
2023-01-03T09:46:38.708Z,3.22
2023-01-03T09:49:07.540Z,5.30
2023-01-03T09:52:00.162Z,3.85
2023-01-03T09:54:53.805Z,5.07
2023-01-03T09:57:53.026Z,3.67
2023-01-03T10:00:49.169Z,3.78
2023-01-03T10:03:51.562Z,4.82
2023-01-03T10:06:41.376Z,5.68
2023-01-03T10:09:36.876Z,5.20
2023-01-03T10:12:16.086Z,4.30
2023-01-03T10:15:03.648Z,4.18
2023-01-03T10:17:42.992Z,5.25
2023-01-03T10:20:19.025Z,5.35
2023-01-03T10:22:48.834Z,4.43
2023-01-03T10:25:22.314Z,3.92
2023-01-03T10:27:58.833Z,4.72
2023-01-03T10:31:15.888Z,5.93
2023-01-03T10:33:48.447Z,4.10
2023-01-03T10:36:18.000Z,4.80
2023-01-03T10:38:52.477Z,4.70
2023-01-03T10:41:52.673Z,4.88
2023-01-03T10:44:31.874Z,3.78
2023-01-03T10:47:09.151Z,4.50
2023-01-03T10:49:36.568Z,4.07
2023-01-03T10:52:25.380Z,4.32
2023-01-03T10:55:02.117Z,4.65
2023-01-03T10:57:44.444Z,4.30
2023-01-03T11:00:30.633Z,7.60
2023-01-03T11:03:22.998Z,4.65
2023-01-03T11:06:08.885Z,4.55
2023-01-03T11:08:46.430Z,4.22
2023-01-03T11:11:36.291Z,4.72
2023-01-03T11:14:24.051Z,5.82
2023-01-03T11:16:55.235Z,3.97
2023-01-03T11:19:36.260Z,4.97
2023-01-03T11:22:37.700Z,3.60
2023-01-03T11:25:48.230Z,3.35
2023-01-03T11:28:49.317Z,3.33
2023-01-03T11:31:41.305Z,4.10
2023-01-03T11:34:17.343Z,3.60
2023-01-03T11:36:50.801Z,3.83
2023-01-03T11:39:32.690Z,5.18
2023-01-03T11:42:33.500Z,5.78
2023-01-03T11:45:31.672Z,3.25
2023-01-03T11:48:47.527Z,2.92
2023-01-03T11:51:26.652Z,3.50
2023-01-03T11:54:15.232Z,4.60
2023-01-03T11:56:47.572Z,3.38
2023-01-03T11:59:40.693Z,3.65
2023-01-03T12:02:11.129Z,4.50
2023-01-03T12:05:13.659Z,3.70
2023-01-03T12:07:54.540Z,3.92
2023-01-03T12:10:43.023Z,3.33
2023-01-03T12:13:53.925Z,2.78
2023-01-03T12:16:31.948Z,4.25
2023-01-03T12:19:27.536Z,3.88
2023-01-03T12:22:02.046Z,3.03
2023-01-03T12:24:32.357Z,2.67
2023-01-03T12:27:15.010Z,3.03
2023-01-03T12:29:51.538Z,2.42
2023-01-03T12:32:43.000Z,3.38
2023-01-03T12:35:40.370Z,2.58
2023-01-03T12:38:11.227Z,3.40
2023-01-03T12:41:01.814Z,3.50
2023-01-03T12:43:34.736Z,2.75
2023-01-03T12:46:13.215Z,3.20
2023-01-03T12:49:25.780Z,3.75
2023-01-03T12:51:53.081Z,3.08
2023-01-03T12:54:38.295Z,2.60
2023-01-03T12:57:24.235Z,2.50
2023-01-03T13:00:07.497Z,3.67
2023-01-03T13:02:59.518Z,3.67
2023-01-03T13:05:50.931Z,3.35
2023-01-03T13:08:45.359Z,4.40
2023-01-03T13:11:25.394Z,4.65
2023-01-03T13:14:20.907Z,3.75
2023-01-03T13:17:07.375Z,4.05
2023-01-03T13:19:40.408Z,3.78
2023-01-03T13:22:38.334Z,3.88
2023-01-03T13:25:27.613Z,3.17
2023-01-03T13:27:58.392Z,3.63
2023-01-03T13:30:31.297Z,4.05
2023-01-03T13:33:07.212Z,2.80
2023-01-03T13:35:56.080Z,3.70
2023-01-03T13:38:36.142Z,3.38
2023-01-03T13:41:18.608Z,3.15
2023-01-03T13:43:50.459Z,2.88
2023-01-03T13:46:31.949Z,2.67
2023-01-03T13:49:08.308Z,3.08
2023-01-03T13:51:42.008Z,2.92
2023-01-03T13:54:12.089Z,3.65
2023-01-03T13:56:48.955Z,3.33
2023-01-03T13:59:18.364Z,3.38
2023-01-03T14:02:27.666Z,2.83
2023-01-03T14:05:08.853Z,2.85
2023-01-03T14:07:58.795Z,4.88
2023-01-03T14:10:52.613Z,3.30
2023-01-03T14:13:38.087Z,3.47
2023-01-03T14:16:27.767Z,4.15
2023-01-03T14:19:07.284Z,2.90
2023-01-03T14:21:46.060Z,3.55
2023-01-03T14:24:24.207Z,3.30
2023-01-03T14:26:52.549Z,2.90
2023-01-03T14:29:23.625Z,3.28
2023-01-03T14:31:56.247Z,2.92
2023-01-03T14:34:34.984Z,3.75
2023-01-03T14:37:15.839Z,3.03
2023-01-03T14:39:57.759Z,3.92
2023-01-03T14:42:25.992Z,3.42
2023-01-03T14:45:02.480Z,4.45
2023-01-03T14:47:32.788Z,3.50
2023-01-03T14:50:00.886Z,3.33
2023-01-03T14:52:35.055Z,3.40
2023-01-03T14:55:24.070Z,3.53
2023-01-03T14:57:56.192Z,3.78
2023-01-03T15:00:36.807Z,3.10
2023-01-03T15:03:04.879Z,3.15
2023-01-03T15:05:35.740Z,3.00
2023-01-03T15:08:15.483Z,3.65
2023-01-03T15:10:50.981Z,3.40
2023-01-03T15:13:29.140Z,3.25
2023-01-03T15:15:59.134Z,7.65
2023-01-03T15:18:33.870Z,9.40
2023-01-03T15:21:03.201Z,25.27
2023-01-03T15:23:48.566Z,38.40
2023-01-03T15:26:42.312Z,32.63
2023-01-03T15:29:16.600Z,20.95
2023-01-03T15:31:57.136Z,16.00
2023-01-03T15:34:36.341Z,23.23
2023-01-03T15:37:26.869Z,13.00
2023-01-03T15:39:56.875Z,8.15
2023-01-03T15:42:51.853Z,6.50
2023-01-03T15:45:33.537Z,7.85
2023-01-03T15:48:04.921Z,8.43
2023-01-03T15:50:47.153Z,6.85
2023-01-03T15:53:27.096Z,9.32
2023-01-03T15:56:08.697Z,6.13
2023-01-03T15:58:37.539Z,5.90
2023-01-03T16:01:05.676Z,4.50
2023-01-03T16:03:35.547Z,4.90
2023-01-03T16:06:03.430Z,5.25
2023-01-03T16:08:36.849Z,4.07
2023-01-03T16:11:07.452Z,4.10
2023-01-03T16:13:46.512Z,4.50
2023-01-03T16:16:20.381Z,5.20
2023-01-03T16:18:49.581Z,4.82
2023-01-03T16:21:17.957Z,6.93
2023-01-03T16:23:45.318Z,8.05
2023-01-03T16:26:12.712Z,7.63
2023-01-03T16:28:39.930Z,7.95
2023-01-03T16:31:17.165Z,8.45
2023-01-03T16:33:48.040Z,7.13
2023-01-03T16:36:32.198Z,11.65
2023-01-03T16:38:59.990Z,8.85
2023-01-03T16:41:27.392Z,10.13
2023-01-03T16:43:55.424Z,8.55
2023-01-03T16:46:25.760Z,6.95
2023-01-03T16:48:55.950Z,7.63
2023-01-03T16:51:30.090Z,8.05
2023-01-03T16:53:59.473Z,10.40
2023-01-03T16:56:27.609Z,9.85
2023-01-03T16:58:54.886Z,7.97
2023-01-03T17:01:22.309Z,8.52
2023-01-03T17:03:49.668Z,7.95
2023-01-03T17:06:37.492Z,8.85
2023-01-03T17:09:21.015Z,8.65
2023-01-03T17:11:48.628Z,30.45
2023-01-03T17:14:21.713Z,16.88
2023-01-03T17:16:50.020Z,13.07
2023-01-03T17:22:22.169Z,7.90
2023-01-03T17:24:51.280Z,9.05
2023-01-03T17:27:25.073Z,8.10
2023-01-03T17:30:01.021Z,7.07
2023-01-03T17:32:28.741Z,9.30
2023-01-03T17:34:56.184Z,9.50
2023-01-03T17:37:23.893Z,8.82
2023-01-03T17:39:58.732Z,9.10
2023-01-03T17:42:27.246Z,9.40
2023-01-03T17:45:15.777Z,11.00
2023-01-03T17:48:02.910Z,9.93
2023-01-03T17:50:32.350Z,10.02
2023-01-03T17:53:02.296Z,10.18
2023-01-03T17:55:30.902Z,9.63
2023-01-03T17:58:02.913Z,9.93
2023-01-03T18:00:31.202Z,10.25
2023-01-03T18:03:00.751Z,9.07
2023-01-03T18:05:30.128Z,9.60
2023-01-03T18:08:00.517Z,7.75
2023-01-03T18:10:46.484Z,9.95
2023-01-03T18:13:25.679Z,9.35
2023-01-03T18:15:54.069Z,9.02
2023-01-03T18:18:24.227Z,9.63
2023-01-03T18:20:55.337Z,9.27
2023-01-03T18:23:34.176Z,9.00
2023-01-03T18:26:07.780Z,9.35
2023-01-03T18:28:37.963Z,8.82
2023-01-03T18:31:07.860Z,10.50
2023-01-03T18:33:35.348Z,9.82
2023-01-03T18:36:02.982Z,9.07
2023-01-03T18:38:41.568Z,10.13
2023-01-03T18:41:19.057Z,8.73
2023-01-03T18:43:46.752Z,9.55
2023-01-03T18:46:16.386Z,9.13
2023-01-03T18:48:43.983Z,9.73
2023-01-03T18:51:16.221Z,8.85
2023-01-03T18:53:53.946Z,9.15
2023-01-03T18:56:33.771Z,10.02
2023-01-03T18:59:33.225Z,9.25
2023-01-03T19:02:00.916Z,9.95
2023-01-03T19:04:28.447Z,10.45
2023-01-03T19:06:55.970Z,11.13
2023-01-03T19:09:28.627Z,10.82
2023-01-03T19:11:57.019Z,9.77
2023-01-03T19:14:24.496Z,10.45
2023-01-03T19:16:51.811Z,11.25
2023-01-03T19:19:21.937Z,9.82
2023-01-03T19:21:49.231Z,10.20
2023-01-03T19:24:38.420Z,9.98
2023-01-03T19:27:16.811Z,10.73
2023-01-03T19:29:47.155Z,11.13
2023-01-03T19:32:19.893Z,9.45
2023-01-03T19:34:47.177Z,11.45
2023-01-03T19:37:15.880Z,9.90
2023-01-03T19:39:43.392Z,10.07
2023-01-03T19:42:36.287Z,9.73
2023-01-03T19:45:17.141Z,9.57
2023-01-03T19:47:44.629Z,10.35
2023-01-03T19:50:38.109Z,11.05
2023-01-03T19:53:06.848Z,10.15
2023-01-03T19:55:37.644Z,10.18
2023-01-03T19:58:33.177Z,12.00
2023-01-03T20:01:01.056Z,9.75
2023-01-03T20:03:39.660Z,11.43
2023-01-03T20:06:18.065Z,10.95
2023-01-03T20:08:46.472Z,9.93
2023-01-03T20:11:23.022Z,11.35
2023-01-03T20:13:51.179Z,10.00
2023-01-03T20:16:18.689Z,9.73
2023-01-03T20:18:46.115Z,10.98
2023-01-03T20:21:23.053Z,9.07
2023-01-03T20:23:56.809Z,11.57
2023-01-03T20:26:29.998Z,11.32
2023-01-03T20:29:01.257Z,11.18
2023-01-03T20:31:29.085Z,9.15
2023-01-03T20:33:56.308Z,9.60
2023-01-03T20:36:36.248Z,12.30
2023-01-03T20:39:14.500Z,11.45
2023-01-03T20:41:41.893Z,10.93
2023-01-03T20:44:15.340Z,11.10
2023-01-03T20:46:42.819Z,9.43
2023-01-03T20:49:38.218Z,10.52
2023-01-03T20:52:07.934Z,10.85
2023-01-03T20:54:35.806Z,10.32
2023-01-03T20:57:13.921Z,9.90
2023-01-03T20:59:41.183Z,11.00
2023-01-03T21:02:13.479Z,10.30
2023-01-03T21:04:40.962Z,9.73
2023-01-03T21:07:49.221Z,10.13
2023-01-03T21:10:28.566Z,9.70
2023-01-03T21:12:55.910Z,9.23
2023-01-03T21:15:23.962Z,9.10
2023-01-03T21:17:51.462Z,11.98
2023-01-03T21:20:24.254Z,9.45
2023-01-03T21:22:51.589Z,9.05
2023-01-03T21:25:28.722Z,9.40
2023-01-03T21:27:56.230Z,8.73
2023-01-03T21:30:24.273Z,8.10
2023-01-03T21:32:51.843Z,7.63
2023-01-03T21:35:21.057Z,8.38
2023-01-03T21:37:52.863Z,7.78
2023-01-03T21:40:23.376Z,8.05
2023-01-03T21:43:05.936Z,8.18
2023-01-03T21:45:46.516Z,8.13
2023-01-03T21:48:18.846Z,7.03
2023-01-03T21:50:48.082Z,6.28
2023-01-03T21:53:17.500Z,8.23
2023-01-03T21:55:45.125Z,7.38
2023-01-03T21:58:21.415Z,7.65
2023-01-03T22:00:48.772Z,7.10
2023-01-03T22:03:36.028Z,6.05
2023-01-03T22:06:14.052Z,8.15
2023-01-03T22:08:41.822Z,8.10
2023-01-03T22:11:09.132Z,7.32
2023-01-03T22:13:36.428Z,6.53
2023-01-03T22:16:05.843Z,6.57
2023-01-03T22:18:33.807Z,6.95
2023-01-03T22:21:10.375Z,6.90
2023-01-03T22:23:38.613Z,7.03
2023-01-03T22:26:13.567Z,6.97
2023-01-03T22:28:43.768Z,6.32
2023-01-03T22:31:18.419Z,6.78
2023-01-03T22:33:47.841Z,6.03
2023-01-03T22:36:16.379Z,7.35
2023-01-03T22:38:44.667Z,6.63
2023-01-03T22:41:17.241Z,6.60
2023-01-03T22:43:45.782Z,6.13
2023-01-03T22:46:17.727Z,5.97
2023-01-03T22:48:45.600Z,5.50
2023-01-03T22:51:15.222Z,5.38
2023-01-03T22:53:44.479Z,6.78
2023-01-03T22:56:15.604Z,5.40
2023-01-03T22:58:46.523Z,6.80
2023-01-03T23:01:20.501Z,5.80
2023-01-03T23:03:48.550Z,4.95
2023-01-03T23:06:17.947Z,6.22
2023-01-03T23:08:50.290Z,5.30
2023-01-03T23:11:39.002Z,6.82
2023-01-03T23:14:11.768Z,5.20
2023-01-03T23:16:39.461Z,5.57
2023-01-03T23:19:11.724Z,5.93
2023-01-03T23:21:39.780Z,5.72
2023-01-03T23:24:07.926Z,5.25
2023-01-03T23:26:35.445Z,4.03
2023-01-03T23:29:03.126Z,4.68
2023-01-03T23:31:30.478Z,6.55
2023-01-03T23:33:59.043Z,5.38
2023-01-03T23:36:28.043Z,5.82
2023-01-03T23:38:56.243Z,5.20
2023-01-03T23:41:23.858Z,7.13
2023-01-03T23:43:52.187Z,4.43
2023-01-03T23:46:22.113Z,5.07
2023-01-03T23:48:54.169Z,5.50
2023-01-03T23:51:21.532Z,4.75
2023-01-03T23:53:48.787Z,5.40
2023-01-03T23:56:17.762Z,4.45
2023-01-03T23:58:47.668Z,4.60
